sensor_id;sensor_type;location;lat;lon;timestamp;P1;durP1;ratioP1;P2;durP2;ratioP2
21862;SDS011;11096;51.338;12.524;2023-04-15T00:02:15;7.00;;;4.57;;
21862;SDS011;11096;51.338;12.524;2023-04-15T00:04:42;7.28;;;4.68;;
21862;SDS011;11096;51.338;12.524;2023-04-15T00:07:08;6.65;;;4.15;;
21862;SDS011;11096;51.338;12.524;2023-04-15T00:09:34;5.13;;;4.07;;
21862;SDS011;11096;51.338;12.524;2023-04-15T00:11:59;6.47;;;4.60;;
21862;SDS011;11096;51.338;12.524;2023-04-15T00:14:25;7.60;;;5.32;;
21862;SDS011;11096;51.338;12.524;2023-04-15T00:16:51;9.68;;;6.80;;
21862;SDS011;11096;51.338;12.524;2023-04-15T00:19:20;10.73;;;7.60;;
21862;SDS011;11096;51.338;12.524;2023-04-15T00:21:45;12.13;;;8.32;;
21862;SDS011;11096;51.338;12.524;2023-04-15T00:24:11;11.77;;;8.60;;
21862;SDS011;11096;51.338;12.524;2023-04-15T00:26:37;11.55;;;8.13;;
21862;SDS011;11096;51.338;12.524;2023-04-15T00:29:03;13.73;;;8.68;;
21862;SDS011;11096;51.338;12.524;2023-04-15T00:31:29;12.82;;;8.50;;
21862;SDS011;11096;51.338;12.524;2023-04-15T00:33:55;13.80;;;9.20;;
21862;SDS011;11096;51.338;12.524;2023-04-15T00:36:21;12.73;;;8.38;;
21862;SDS011;11096;51.338;12.524;2023-04-15T00:38:47;11.30;;;7.65;;
21862;SDS011;11096;51.338;12.524;2023-04-15T00:41:13;9.85;;;7.13;;
21862;SDS011;11096;51.338;12.524;2023-04-15T00:43:38;9.82;;;6.68;;
21862;SDS011;11096;51.338;12.524;2023-04-15T00:46:04;8.23;;;5.82;;
21862;SDS011;11096;51.338;12.524;2023-04-15T00:48:30;8.50;;;5.55;;
21862;SDS011;11096;51.338;12.524;2023-04-15T00:50:56;7.70;;;5.82;;
21862;SDS011;11096;51.338;12.524;2023-04-15T00:53:22;7.93;;;5.70;;
21862;SDS011;11096;51.338;12.524;2023-04-15T00:55:48;6.20;;;5.22;;
21862;SDS011;11096;51.338;12.524;2023-04-15T00:58:13;7.68;;;5.28;;
21862;SDS011;11096;51.338;12.524;2023-04-15T01:00:40;6.68;;;4.80;;
21862;SDS011;11096;51.338;12.524;2023-04-15T01:03:06;7.03;;;4.90;;
21862;SDS011;11096;51.338;12.524;2023-04-15T01:05:32;9.88;;;5.60;;
21862;SDS011;11096;51.338;12.524;2023-04-15T01:07:58;8.68;;;5.53;;
21862;SDS011;11096;51.338;12.524;2023-04-15T01:10:23;8.18;;;5.72;;
21862;SDS011;11096;51.338;12.524;2023-04-15T01:12:49;8.35;;;5.85;;
21862;SDS011;11096;51.338;12.524;2023-04-15T01:15:15;8.88;;;4.95;;
21862;SDS011;11096;51.338;12.524;2023-04-15T01:17:41;9.30;;;5.45;;
21862;SDS011;11096;51.338;12.524;2023-04-15T01:20:07;8.02;;;5.40;;
21862;SDS011;11096;51.338;12.524;2023-04-15T01:22:36;8.07;;;5.75;;
21862;SDS011;11096;51.338;12.524;2023-04-15T01:25:08;9.10;;;6.03;;
21862;SDS011;11096;51.338;12.524;2023-04-15T01:27:36;9.27;;;6.35;;
21862;SDS011;11096;51.338;12.524;2023-04-15T01:30:04;10.30;;;7.25;;
21862;SDS011;11096;51.338;12.524;2023-04-15T01:32:32;11.65;;;7.60;;
21862;SDS011;11096;51.338;12.524;2023-04-15T01:34:57;11.15;;;7.47;;
21862;SDS011;11096;51.338;12.524;2023-04-15T01:37:23;10.95;;;7.28;;
21862;SDS011;11096;51.338;12.524;2023-04-15T01:39:48;11.13;;;7.57;;
21862;SDS011;11096;51.338;12.524;2023-04-15T01:42:14;10.05;;;7.10;;
21862;SDS011;11096;51.338;12.524;2023-04-15T01:44:39;10.95;;;6.70;;
21862;SDS011;11096;51.338;12.524;2023-04-15T01:47:05;10.75;;;7.43;;
21862;SDS011;11096;51.338;12.524;2023-04-15T01:49:31;10.65;;;6.93;;
21862;SDS011;11096;51.338;12.524;2023-04-15T01:51:56;12.00;;;6.82;;
21862;SDS011;11096;51.338;12.524;2023-04-15T01:54:22;11.70;;;7.53;;
21862;SDS011;11096;51.338;12.524;2023-04-15T01:56:47;10.18;;;6.70;;
21862;SDS011;11096;51.338;12.524;2023-04-15T01:59:12;11.85;;;7.53;;
21862;SDS011;11096;51.338;12.524;2023-04-15T02:01:38;10.85;;;6.68;;
21862;SDS011;11096;51.338;12.524;2023-04-15T02:04:03;9.55;;;5.88;;
21862;SDS011;11096;51.338;12.524;2023-04-15T02:06:29;10.27;;;6.47;;
21862;SDS011;11096;51.338;12.524;2023-04-15T02:08:54;8.50;;;5.70;;
21862;SDS011;11096;51.338;12.524;2023-04-15T02:11:20;10.18;;;6.22;;
21862;SDS011;11096;51.338;12.524;2023-04-15T02:13:46;10.85;;;6.18;;
21862;SDS011;11096;51.338;12.524;2023-04-15T02:16:16;9.80;;;6.22;;
21862;SDS011;11096;51.338;12.524;2023-04-15T02:18:47;9.88;;;6.65;;
21862;SDS011;11096;51.338;12.524;2023-04-15T02:21:13;10.05;;;6.45;;
21862;SDS011;11096;51.338;12.524;2023-04-15T02:23:38;10.07;;;6.53;;
21862;SDS011;11096;51.338;12.524;2023-04-15T02:26:04;10.32;;;7.35;;
21862;SDS011;11096;51.338;12.524;2023-04-15T02:28:29;10.00;;;6.80;;
21862;SDS011;11096;51.338;12.524;2023-04-15T02:30:54;10.82;;;6.68;;
21862;SDS011;11096;51.338;12.524;2023-04-15T02:33:21;9.40;;;6.28;;
21862;SDS011;11096;51.338;12.524;2023-04-15T02:35:47;10.18;;;6.30;;
21862;SDS011;11096;51.338;12.524;2023-04-15T02:38:12;8.85;;;6.07;;
21862;SDS011;11096;51.338;12.524;2023-04-15T02:40:40;7.43;;;5.30;;
21862;SDS011;11096;51.338;12.524;2023-04-15T02:43:06;7.90;;;5.30;;
21862;SDS011;11096;51.338;12.524;2023-04-15T02:45:31;9.30;;;5.40;;
21862;SDS011;11096;51.338;12.524;2023-04-15T02:47:57;6.15;;;4.63;;
21862;SDS011;11096;51.338;12.524;2023-04-15T02:50:22;8.35;;;5.68;;
21862;SDS011;11096;51.338;12.524;2023-04-15T02:52:49;7.22;;;4.88;;
21862;SDS011;11096;51.338;12.524;2023-04-15T02:55:15;7.55;;;5.18;;
21862;SDS011;11096;51.338;12.524;2023-04-15T02:57:42;7.07;;;5.07;;
21862;SDS011;11096;51.338;12.524;2023-04-15T03:00:08;6.63;;;4.63;;
21862;SDS011;11096;51.338;12.524;2023-04-15T03:02:35;6.13;;;4.28;;
21862;SDS011;11096;51.338;12.524;2023-04-15T03:05:02;7.07;;;4.53;;
21862;SDS011;11096;51.338;12.524;2023-04-15T03:07:28;6.60;;;4.60;;
21862;SDS011;11096;51.338;12.524;2023-04-15T03:09:53;6.68;;;4.53;;
21862;SDS011;11096;51.338;12.524;2023-04-15T03:12:19;8.75;;;5.15;;
21862;SDS011;11096;51.338;12.524;2023-04-15T03:14:45;7.82;;;5.15;;
21862;SDS011;11096;51.338;12.524;2023-04-15T03:17:10;8.75;;;5.63;;
21862;SDS011;11096;51.338;12.524;2023-04-15T03:19:36;7.55;;;5.05;;
21862;SDS011;11096;51.338;12.524;2023-04-15T03:22:01;8.25;;;5.75;;
21862;SDS011;11096;51.338;12.524;2023-04-15T03:24:27;8.32;;;5.47;;
21862;SDS011;11096;51.338;12.524;2023-04-15T03:26:53;8.18;;;5.38;;
21862;SDS011;11096;51.338;12.524;2023-04-15T03:29:19;9.48;;;5.63;;
21862;SDS011;11096;51.338;12.524;2023-04-15T03:31:44;9.10;;;5.32;;
21862;SDS011;11096;51.338;12.524;2023-04-15T03:34:10;7.63;;;4.53;;
21862;SDS011;11096;51.338;12.524;2023-04-15T03:36:35;7.57;;;4.85;;
21862;SDS011;11096;51.338;12.524;2023-04-15T03:39:01;7.50;;;4.65;;
21862;SDS011;11096;51.338;12.524;2023-04-15T03:41:26;5.85;;;4.15;;
21862;SDS011;11096;51.338;12.524;2023-04-15T03:43:52;6.35;;;4.03;;
21862;SDS011;11096;51.338;12.524;2023-04-15T03:46:18;5.97;;;4.15;;
21862;SDS011;11096;51.338;12.524;2023-04-15T03:48:44;6.47;;;3.80;;
21862;SDS011;11096;51.338;12.524;2023-04-15T03:51:09;6.60;;;4.47;;
21862;SDS011;11096;51.338;12.524;2023-04-15T03:53:35;6.43;;;4.40;;
21862;SDS011;11096;51.338;12.524;2023-04-15T03:56:01;7.45;;;4.40;;
21862;SDS011;11096;51.338;12.524;2023-04-15T03:58:26;5.93;;;3.75;;
21862;SDS011;11096;51.338;12.524;2023-04-15T04:00:52;5.88;;;4.25;;
21862;SDS011;11096;51.338;12.524;2023-04-15T04:03:17;6.50;;;4.18;;
21862;SDS011;11096;51.338;12.524;2023-04-15T04:05:42;6.18;;;4.38;;
21862;SDS011;11096;51.338;12.524;2023-04-15T04:08:08;6.40;;;4.38;;
21862;SDS011;11096;51.338;12.524;2023-04-15T04:10:34;7.35;;;5.20;;
21862;SDS011;11096;51.338;12.524;2023-04-15T04:12:59;7.97;;;5.18;;
21862;SDS011;11096;51.338;12.524;2023-04-15T04:15:26;6.80;;;4.68;;
21862;SDS011;11096;51.338;12.524;2023-04-15T04:17:51;7.22;;;4.82;;
21862;SDS011;11096;51.338;12.524;2023-04-15T04:20:17;7.22;;;4.93;;
21862;SDS011;11096;51.338;12.524;2023-04-15T04:22:42;7.13;;;4.85;;
21862;SDS011;11096;51.338;12.524;2023-04-15T04:25:08;6.82;;;5.18;;
21862;SDS011;11096;51.338;12.524;2023-04-15T04:27:36;8.05;;;4.25;;
21862;SDS011;11096;51.338;12.524;2023-04-15T04:30:02;7.10;;;5.05;;
21862;SDS011;11096;51.338;12.524;2023-04-15T04:32:28;7.72;;;5.03;;
21862;SDS011;11096;51.338;12.524;2023-04-15T04:34:54;7.55;;;4.93;;
21862;SDS011;11096;51.338;12.524;2023-04-15T04:37:19;7.55;;;5.10;;
21862;SDS011;11096;51.338;12.524;2023-04-15T04:39:45;7.85;;;5.22;;
21862;SDS011;11096;51.338;12.524;2023-04-15T04:42:10;7.00;;;5.00;;
21862;SDS011;11096;51.338;12.524;2023-04-15T04:44:35;8.98;;;5.60;;
21862;SDS011;11096;51.338;12.524;2023-04-15T04:47:01;6.85;;;4.85;;
21862;SDS011;11096;51.338;12.524;2023-04-15T04:49:26;6.97;;;5.35;;
21862;SDS011;11096;51.338;12.524;2023-04-15T04:51:52;9.13;;;5.50;;
21862;SDS011;11096;51.338;12.524;2023-04-15T04:54:17;6.72;;;4.80;;
21862;SDS011;11096;51.338;12.524;2023-04-15T04:56:43;7.95;;;5.32;;
21862;SDS011;11096;51.338;12.524;2023-04-15T04:59:08;7.53;;;5.43;;
21862;SDS011;11096;51.338;12.524;2023-04-15T05:01:34;7.90;;;5.43;;
21862;SDS011;11096;51.338;12.524;2023-04-15T05:03:59;8.45;;;5.82;;
21862;SDS011;11096;51.338;12.524;2023-04-15T05:06:25;7.22;;;5.50;;
21862;SDS011;11096;51.338;12.524;2023-04-15T05:08:50;7.43;;;5.43;;
21862;SDS011;11096;51.338;12.524;2023-04-15T05:11:16;6.88;;;5.00;;
21862;SDS011;11096;51.338;12.524;2023-04-15T05:13:41;8.52;;;5.57;;
21862;SDS011;11096;51.338;12.524;2023-04-15T05:16:07;9.27;;;5.28;;
21862;SDS011;11096;51.338;12.524;2023-04-15T05:18:32;7.75;;;5.60;;
21862;SDS011;11096;51.338;12.524;2023-04-15T05:20:58;7.20;;;5.28;;
21862;SDS011;11096;51.338;12.524;2023-04-15T05:23:23;9.05;;;5.30;;
21862;SDS011;11096;51.338;12.524;2023-04-15T05:25:49;7.85;;;5.75;;
21862;SDS011;11096;51.338;12.524;2023-04-15T05:28:14;7.03;;;5.38;;
21862;SDS011;11096;51.338;12.524;2023-04-15T05:30:40;8.38;;;5.53;;
21862;SDS011;11096;51.338;12.524;2023-04-15T05:33:06;8.68;;;6.05;;
21862;SDS011;11096;51.338;12.524;2023-04-15T05:35:31;9.25;;;5.60;;
21862;SDS011;11096;51.338;12.524;2023-04-15T05:37:57;8.02;;;5.38;;
21862;SDS011;11096;51.338;12.524;2023-04-15T05:40:22;8.35;;;5.20;;
21862;SDS011;11096;51.338;12.524;2023-04-15T05:42:48;7.10;;;5.15;;
21862;SDS011;11096;51.338;12.524;2023-04-15T05:45:13;6.97;;;5.03;;
21862;SDS011;11096;51.338;12.524;2023-04-15T05:47:39;7.95;;;5.57;;
21862;SDS011;11096;51.338;12.524;2023-04-15T05:50:04;8.27;;;5.50;;
21862;SDS011;11096;51.338;12.524;2023-04-15T05:52:30;9.05;;;5.97;;
21862;SDS011;11096;51.338;12.524;2023-04-15T05:54:56;8.63;;;5.75;;
21862;SDS011;11096;51.338;12.524;2023-04-15T05:57:21;9.63;;;6.32;;
21862;SDS011;11096;51.338;12.524;2023-04-15T05:59:47;8.50;;;5.88;;
21862;SDS011;11096;51.338;12.524;2023-04-15T06:02:13;7.45;;;5.65;;
21862;SDS011;11096;51.338;12.524;2023-04-15T06:04:38;8.68;;;6.13;;
21862;SDS011;11096;51.338;12.524;2023-04-15T06:07:04;9.00;;;5.80;;
21862;SDS011;11096;51.338;12.524;2023-04-15T06:09:29;6.47;;;4.80;;
21862;SDS011;11096;51.338;12.524;2023-04-15T06:11:55;6.78;;;4.95;;
21862;SDS011;11096;51.338;12.524;2023-04-15T06:14:21;5.65;;;4.60;;
21862;SDS011;11096;51.338;12.524;2023-04-15T06:16:47;7.32;;;4.28;;
21862;SDS011;11096;51.338;12.524;2023-04-15T06:19:13;6.15;;;4.47;;
21862;SDS011;11096;51.338;12.524;2023-04-15T06:21:38;6.20;;;4.35;;
21862;SDS011;11096;51.338;12.524;2023-04-15T06:24:04;5.35;;;3.63;;
21862;SDS011;11096;51.338;12.524;2023-04-15T06:26:30;4.57;;;3.55;;
21862;SDS011;11096;51.338;12.524;2023-04-15T06:28:55;6.18;;;4.22;;
21862;SDS011;11096;51.338;12.524;2023-04-15T06:31:21;5.45;;;3.88;;
21862;SDS011;11096;51.338;12.524;2023-04-15T06:33:46;5.40;;;3.97;;
21862;SDS011;11096;51.338;12.524;2023-04-15T06:36:12;6.88;;;4.40;;
21862;SDS011;11096;51.338;12.524;2023-04-15T06:38:37;5.55;;;3.92;;
21862;SDS011;11096;51.338;12.524;2023-04-15T06:41:03;4.45;;;3.38;;
21862;SDS011;11096;51.338;12.524;2023-04-15T06:43:29;5.53;;;3.75;;
21862;SDS011;11096;51.338;12.524;2023-04-15T06:45:54;9.55;;;5.72;;
21862;SDS011;11096;51.338;12.524;2023-04-15T06:48:20;11.88;;;6.78;;
21862;SDS011;11096;51.338;12.524;2023-04-15T06:50:46;7.82;;;5.55;;
21862;SDS011;11096;51.338;12.524;2023-04-15T06:53:13;6.07;;;4.30;;
21862;SDS011;11096;51.338;12.524;2023-04-15T06:55:38;4.15;;;3.72;;
21862;SDS011;11096;51.338;12.524;2023-04-15T06:58:04;6.90;;;4.38;;
21862;SDS011;11096;51.338;12.524;2023-04-15T07:00:29;4.97;;;3.95;;
21862;SDS011;11096;51.338;12.524;2023-04-15T07:02:56;7.13;;;4.47;;
21862;SDS011;11096;51.338;12.524;2023-04-15T07:05:21;6.78;;;4.40;;
21862;SDS011;11096;51.338;12.524;2023-04-15T07:07:47;6.15;;;4.25;;
21862;SDS011;11096;51.338;12.524;2023-04-15T07:10:12;7.35;;;3.92;;
21862;SDS011;11096;51.338;12.524;2023-04-15T07:12:39;5.43;;;3.97;;
21862;SDS011;11096;51.338;12.524;2023-04-15T07:15:05;4.65;;;3.67;;
21862;SDS011;11096;51.338;12.524;2023-04-15T07:17:31;5.05;;;3.90;;
21862;SDS011;11096;51.338;12.524;2023-04-15T07:19:57;6.65;;;4.85;;
21862;SDS011;11096;51.338;12.524;2023-04-15T07:22:22;7.15;;;4.38;;
21862;SDS011;11096;51.338;12.524;2023-04-15T07:24:48;6.75;;;4.28;;
21862;SDS011;11096;51.338;12.524;2023-04-15T07:27:13;7.70;;;5.28;;
21862;SDS011;11096;51.338;12.524;2023-04-15T07:29:39;6.32;;;4.13;;
21862;SDS011;11096;51.338;12.524;2023-04-15T07:32:04;8.25;;;5.25;;
21862;SDS011;11096;51.338;12.524;2023-04-15T07:34:30;7.85;;;5.35;;
21862;SDS011;11096;51.338;12.524;2023-04-15T07:36:55;8.57;;;5.75;;
21862;SDS011;11096;51.338;12.524;2023-04-15T07:39:21;9.77;;;6.03;;
21862;SDS011;11096;51.338;12.524;2023-04-15T07:41:47;10.98;;;5.32;;
21862;SDS011;11096;51.338;12.524;2023-04-15T07:44:13;8.93;;;5.93;;
21862;SDS011;11096;51.338;12.524;2023-04-15T07:46:38;8.10;;;5.28;;
21862;SDS011;11096;51.338;12.524;2023-04-15T07:49:04;7.75;;;4.72;;
21862;SDS011;11096;51.338;12.524;2023-04-15T07:51:29;7.63;;;5.05;;
21862;SDS011;11096;51.338;12.524;2023-04-15T07:53:56;8.98;;;5.78;;
21862;SDS011;11096;51.338;12.524;2023-04-15T07:56:21;11.25;;;6.80;;
21862;SDS011;11096;51.338;12.524;2023-04-15T07:58:47;10.57;;;5.95;;
21862;SDS011;11096;51.338;12.524;2023-04-15T08:01:12;9.45;;;6.50;;
21862;SDS011;11096;51.338;12.524;2023-04-15T08:03:37;12.15;;;6.82;;
21862;SDS011;11096;51.338;12.524;2023-04-15T08:06:03;9.10;;;5.82;;
21862;SDS011;11096;51.338;12.524;2023-04-15T08:08:28;11.25;;;6.63;;
21862;SDS011;11096;51.338;12.524;2023-04-15T08:10:54;9.20;;;6.10;;
21862;SDS011;11096;51.338;12.524;2023-04-15T08:13:19;11.38;;;6.30;;
21862;SDS011;11096;51.338;12.524;2023-04-15T08:15:45;10.45;;;6.57;;
21862;SDS011;11096;51.338;12.524;2023-04-15T08:18:11;11.02;;;7.35;;
21862;SDS011;11096;51.338;12.524;2023-04-15T08:20:36;8.95;;;6.05;;
21862;SDS011;11096;51.338;12.524;2023-04-15T08:23:02;9.85;;;7.00;;
21862;SDS011;11096;51.338;12.524;2023-04-15T08:25:28;10.15;;;6.93;;
21862;SDS011;11096;51.338;12.524;2023-04-15T08:27:54;9.30;;;6.22;;
21862;SDS011;11096;51.338;12.524;2023-04-15T08:30:21;9.57;;;6.35;;
21862;SDS011;11096;51.338;12.524;2023-04-15T08:32:46;11.32;;;6.57;;
21862;SDS011;11096;51.338;12.524;2023-04-15T08:35:13;10.52;;;6.90;;
21862;SDS011;11096;51.338;12.524;2023-04-15T08:37:39;11.10;;;6.75;;
21862;SDS011;11096;51.338;12.524;2023-04-15T08:40:04;13.07;;;7.85;;
21862;SDS011;11096;51.338;12.524;2023-04-15T08:42:31;10.85;;;6.93;;
21862;SDS011;11096;51.338;12.524;2023-04-15T08:45:05;12.30;;;6.88;;
21862;SDS011;11096;51.338;12.524;2023-04-15T08:47:35;11.27;;;6.90;;
21862;SDS011;11096;51.338;12.524;2023-04-15T08:50:02;10.82;;;7.03;;
21862;SDS011;11096;51.338;12.524;2023-04-15T08:52:29;14.60;;;7.82;;
21862;SDS011;11096;51.338;12.524;2023-04-15T08:54:56;10.98;;;7.07;;
21862;SDS011;11096;51.338;12.524;2023-04-15T08:57:25;10.65;;;7.20;;
21862;SDS011;11096;51.338;12.524;2023-04-15T08:59:52;10.95;;;6.97;;
21862;SDS011;11096;51.338;12.524;2023-04-15T09:02:20;9.73;;;7.00;;
21862;SDS011;11096;51.338;12.524;2023-04-15T09:04:47;13.23;;;6.40;;
21862;SDS011;11096;51.338;12.524;2023-04-15T09:07:12;10.43;;;7.38;;
21862;SDS011;11096;51.338;12.524;2023-04-15T09:09:38;13.55;;;7.97;;
21862;SDS011;11096;51.338;12.524;2023-04-15T09:12:06;15.32;;;8.90;;
21862;SDS011;11096;51.338;12.524;2023-04-15T09:14:32;17.48;;;8.77;;
21862;SDS011;11096;51.338;12.524;2023-04-15T09:16:59;15.32;;;8.43;;
21862;SDS011;11096;51.338;12.524;2023-04-15T09:19:26;14.07;;;8.25;;
21862;SDS011;11096;51.338;12.524;2023-04-15T09:21:56;17.42;;;10.07;;
21862;SDS011;11096;51.338;12.524;2023-04-15T09:24:22;20.45;;;10.68;;
21862;SDS011;11096;51.338;12.524;2023-04-15T09:26:51;17.83;;;9.82;;
21862;SDS011;11096;51.338;12.524;2023-04-15T09:29:18;18.45;;;10.10;;
21862;SDS011;11096;51.338;12.524;2023-04-15T09:31:44;15.90;;;10.05;;
21862;SDS011;11096;51.338;12.524;2023-04-15T09:34:09;15.73;;;9.52;;
21862;SDS011;11096;51.338;12.524;2023-04-15T09:36:37;17.30;;;10.48;;
21862;SDS011;11096;51.338;12.524;2023-04-15T09:39:15;15.98;;;10.00;;
21862;SDS011;11096;51.338;12.524;2023-04-15T09:41:41;14.57;;;9.40;;
21862;SDS011;11096;51.338;12.524;2023-04-15T09:44:22;17.33;;;10.48;;
21862;SDS011;11096;51.338;12.524;2023-04-15T09:46:48;14.60;;;9.07;;
21862;SDS011;11096;51.338;12.524;2023-04-15T09:49:13;16.27;;;9.93;;
21862;SDS011;11096;51.338;12.524;2023-04-15T09:51:40;12.90;;;8.60;;
21862;SDS011;11096;51.338;12.524;2023-04-15T09:54:05;15.10;;;9.85;;
21862;SDS011;11096;51.338;12.524;2023-04-15T09:56:33;16.05;;;10.02;;
21862;SDS011;11096;51.338;12.524;2023-04-15T09:59:01;16.40;;;10.70;;
21862;SDS011;11096;51.338;12.524;2023-04-15T10:01:27;19.67;;;11.98;;
21862;SDS011;11096;51.338;12.524;2023-04-15T10:03:53;17.95;;;11.98;;
21862;SDS011;11096;51.338;12.524;2023-04-15T10:06:22;18.55;;;12.02;;
21862;SDS011;11096;51.338;12.524;2023-04-15T10:08:50;20.73;;;12.65;;
21862;SDS011;11096;51.338;12.524;2023-04-15T10:11:17;16.88;;;11.35;;
21862;SDS011;11096;51.338;12.524;2023-04-15T10:13:44;16.98;;;11.88;;
21862;SDS011;11096;51.338;12.524;2023-04-15T10:16:13;20.15;;;12.38;;
21862;SDS011;11096;51.338;12.524;2023-04-15T10:18:45;16.33;;;11.07;;
21862;SDS011;11096;51.338;12.524;2023-04-15T10:21:20;21.00;;;11.77;;
21862;SDS011;11096;51.338;12.524;2023-04-15T10:23:47;17.92;;;11.82;;
21862;SDS011;11096;51.338;12.524;2023-04-15T10:26:14;17.23;;;11.45;;
21862;SDS011;11096;51.338;12.524;2023-04-15T10:28:41;18.45;;;12.55;;
21862;SDS011;11096;51.338;12.524;2023-04-15T10:31:07;17.30;;;12.20;;
21862;SDS011;11096;51.338;12.524;2023-04-15T10:33:36;19.08;;;12.88;;
21862;SDS011;11096;51.338;12.524;2023-04-15T10:36:03;18.90;;;12.10;;
21862;SDS011;11096;51.338;12.524;2023-04-15T10:38:40;17.35;;;11.27;;
21862;SDS011;11096;51.338;12.524;2023-04-15T10:41:26;15.48;;;10.80;;
21862;SDS011;11096;51.338;12.524;2023-04-15T10:44:01;14.85;;;10.68;;
21862;SDS011;11096;51.338;12.524;2023-04-15T10:46:36;14.05;;;10.45;;
21862;SDS011;11096;51.338;12.524;2023-04-15T10:49:08;18.45;;;10.88;;
21862;SDS011;11096;51.338;12.524;2023-04-15T10:51:53;14.60;;;10.15;;
21862;SDS011;11096;51.338;12.524;2023-04-15T10:56:51;14.27;;;10.23;;
21862;SDS011;11096;51.338;12.524;2023-04-15T10:59:34;13.93;;;9.48;;
21862;SDS011;11096;51.338;12.524;2023-04-15T11:02:02;14.20;;;9.90;;
21862;SDS011;11096;51.338;12.524;2023-04-15T11:07:34;14.43;;;10.20;;
21862;SDS011;11096;51.338;12.524;2023-04-15T11:12:42;13.10;;;9.15;;
21862;SDS011;11096;51.338;12.524;2023-04-15T11:20:35;12.80;;;8.85;;
21862;SDS011;11096;51.338;12.524;2023-04-15T11:23:01;12.48;;;9.18;;
21862;SDS011;11096;51.338;12.524;2023-04-15T11:25:28;15.15;;;9.07;;
21862;SDS011;11096;51.338;12.524;2023-04-15T11:27:55;15.13;;;9.80;;
21862;SDS011;11096;51.338;12.524;2023-04-15T11:30:22;12.60;;;8.75;;
21862;SDS011;11096;51.338;12.524;2023-04-15T11:32:49;11.48;;;8.20;;
21862;SDS011;11096;51.338;12.524;2023-04-15T11:35:16;13.52;;;8.60;;
21862;SDS011;11096;51.338;12.524;2023-04-15T11:37:46;12.02;;;7.88;;
21862;SDS011;11096;51.338;12.524;2023-04-15T11:40:13;11.30;;;8.10;;
21862;SDS011;11096;51.338;12.524;2023-04-15T11:42:39;9.63;;;6.93;;
21862;SDS011;11096;51.338;12.524;2023-04-15T11:45:08;11.90;;;7.95;;
21862;SDS011;11096;51.338;12.524;2023-04-15T11:47:38;10.48;;;7.40;;
21862;SDS011;11096;51.338;12.524;2023-04-15T11:50:15;9.52;;;7.03;;
21862;SDS011;11096;51.338;12.524;2023-04-15T11:55:22;11.27;;;8.20;;
21862;SDS011;11096;51.338;12.524;2023-04-15T11:58:09;9.82;;;7.32;;
21862;SDS011;11096;51.338;12.524;2023-04-15T12:00:34;8.73;;;6.38;;
21862;SDS011;11096;51.338;12.524;2023-04-15T12:06:21;10.90;;;7.38;;
21862;SDS011;11096;51.338;12.524;2023-04-15T12:11:32;8.65;;;6.75;;
21862;SDS011;11096;51.338;12.524;2023-04-15T12:16:56;11.13;;;6.75;;
21862;SDS011;11096;51.338;12.524;2023-04-15T12:19:26;8.52;;;6.00;;
21862;SDS011;11096;51.338;12.524;2023-04-15T12:22:11;8.63;;;6.57;;
21862;SDS011;11096;51.338;12.524;2023-04-15T12:24:38;8.10;;;6.40;;
21862;SDS011;11096;51.338;12.524;2023-04-15T12:27:08;7.10;;;5.85;;
21862;SDS011;11096;51.338;12.524;2023-04-15T12:29:36;6.20;;;5.15;;
21862;SDS011;11096;51.338;12.524;2023-04-15T12:32:21;8.93;;;6.78;;
21862;SDS011;11096;51.338;12.524;2023-04-15T12:34:49;7.80;;;5.55;;
21862;SDS011;11096;51.338;12.524;2023-04-15T12:37:16;7.32;;;5.60;;
21862;SDS011;11096;51.338;12.524;2023-04-15T12:39:43;8.88;;;5.75;;
21862;SDS011;11096;51.338;12.524;2023-04-15T12:42:09;6.65;;;5.15;;
21862;SDS011;11096;51.338;12.524;2023-04-15T12:44:35;7.55;;;5.43;;
21862;SDS011;11096;51.338;12.524;2023-04-15T12:47:02;6.18;;;4.57;;
21862;SDS011;11096;51.338;12.524;2023-04-15T12:49:28;5.90;;;5.03;;
21862;SDS011;11096;51.338;12.524;2023-04-15T12:51:57;6.75;;;5.47;;
21862;SDS011;11096;51.338;12.524;2023-04-15T12:54:24;6.68;;;4.72;;
21862;SDS011;11096;51.338;12.524;2023-04-15T12:56:50;4.72;;;4.18;;
21862;SDS011;11096;51.338;12.524;2023-04-15T12:59:16;5.90;;;4.40;;
21862;SDS011;11096;51.338;12.524;2023-04-15T13:01:42;5.32;;;4.75;;
21862;SDS011;11096;51.338;12.524;2023-04-15T13:04:08;5.53;;;4.07;;
21862;SDS011;11096;51.338;12.524;2023-04-15T13:06:34;5.78;;;4.25;;
21862;SDS011;11096;51.338;12.524;2023-04-15T13:08:59;4.82;;;3.85;;
21862;SDS011;11096;51.338;12.524;2023-04-15T13:11:25;5.63;;;3.47;;
21862;SDS011;11096;51.338;12.524;2023-04-15T13:13:53;4.70;;;3.78;;
21862;SDS011;11096;51.338;12.524;2023-04-15T13:16:19;5.63;;;4.13;;
21862;SDS011;11096;51.338;12.524;2023-04-15T13:18:45;5.15;;;3.67;;
21862;SDS011;11096;51.338;12.524;2023-04-15T13:21:12;4.32;;;3.78;;
21862;SDS011;11096;51.338;12.524;2023-04-15T13:23:37;4.30;;;3.80;;
21862;SDS011;11096;51.338;12.524;2023-04-15T13:26:02;5.28;;;4.28;;
21862;SDS011;11096;51.338;12.524;2023-04-15T13:28:28;4.18;;;3.60;;
21862;SDS011;11096;51.338;12.524;2023-04-15T13:30:54;4.38;;;3.97;;
21862;SDS011;11096;51.338;12.524;2023-04-15T13:33:19;5.07;;;4.32;;
21862;SDS011;11096;51.338;12.524;2023-04-15T13:35:45;4.53;;;3.67;;
21862;SDS011;11096;51.338;12.524;2023-04-15T13:38:11;5.00;;;4.18;;
21862;SDS011;11096;51.338;12.524;2023-04-15T13:40:36;4.47;;;3.70;;
21862;SDS011;11096;51.338;12.524;2023-04-15T13:43:02;3.92;;;3.55;;
21862;SDS011;11096;51.338;12.524;2023-04-15T13:45:28;4.63;;;3.40;;
21862;SDS011;11096;51.338;12.524;2023-04-15T13:47:54;4.45;;;3.33;;
21862;SDS011;11096;51.338;12.524;2023-04-15T13:50:21;3.88;;;3.15;;
21862;SDS011;11096;51.338;12.524;2023-04-15T13:52:46;3.58;;;3.17;;
21862;SDS011;11096;51.338;12.524;2023-04-15T13:55:11;3.75;;;3.28;;
21862;SDS011;11096;51.338;12.524;2023-04-15T13:57:37;3.15;;;2.85;;
21862;SDS011;11096;51.338;12.524;2023-04-15T14:00:02;3.20;;;2.83;;
21862;SDS011;11096;51.338;12.524;2023-04-15T14:02:28;5.20;;;3.08;;
21862;SDS011;11096;51.338;12.524;2023-04-15T14:04:54;3.45;;;2.85;;
21862;SDS011;11096;51.338;12.524;2023-04-15T14:07:20;3.00;;;2.67;;
21862;SDS011;11096;51.338;12.524;2023-04-15T14:09:45;3.55;;;2.95;;
21862;SDS011;11096;51.338;12.524;2023-04-15T14:12:12;3.70;;;3.10;;
21862;SDS011;11096;51.338;12.524;2023-04-15T14:14:38;3.80;;;3.10;;
21862;SDS011;11096;51.338;12.524;2023-04-15T14:17:04;4.45;;;3.55;;
21862;SDS011;11096;51.338;12.524;2023-04-15T14:19:29;3.63;;;3.15;;
21862;SDS011;11096;51.338;12.524;2023-04-15T14:21:56;3.15;;;2.85;;
21862;SDS011;11096;51.338;12.524;2023-04-15T14:24:21;4.85;;;3.30;;
21862;SDS011;11096;51.338;12.524;2023-04-15T14:26:47;4.60;;;3.15;;
21862;SDS011;11096;51.338;12.524;2023-04-15T14:29:12;5.65;;;3.28;;
21862;SDS011;11096;51.338;12.524;2023-04-15T14:31:38;3.88;;;3.47;;
21862;SDS011;11096;51.338;12.524;2023-04-15T14:34:04;4.18;;;3.55;;
21862;SDS011;11096;51.338;12.524;2023-04-15T14:36:30;4.53;;;3.10;;
21862;SDS011;11096;51.338;12.524;2023-04-15T14:38:56;3.38;;;3.08;;
21862;SDS011;11096;51.338;12.524;2023-04-15T14:41:22;3.67;;;2.97;;
21862;SDS011;11096;51.338;12.524;2023-04-15T14:43:47;3.60;;;2.80;;
21862;SDS011;11096;51.338;12.524;2023-04-15T14:46:13;4.38;;;3.42;;
21862;SDS011;11096;51.338;12.524;2023-04-15T14:48:38;4.22;;;3.55;;
21862;SDS011;11096;51.338;12.524;2023-04-15T14:51:04;4.68;;;3.50;;